sensor_id;sensor_type;location;lat;lon;timestamp;P1;durP1;ratioP1;P2;durP2;ratioP2
59390;SDS011;53405;57.012;40.984;2023-04-03T00:01:12;44.40;;;23.20;;
59390;SDS011;53405;57.012;40.984;2023-04-03T00:03:40;49.20;;;24.90;;
59390;SDS011;53405;57.012;40.984;2023-04-03T00:06:10;45.08;;;23.27;;
59390;SDS011;53405;57.012;40.984;2023-04-03T00:08:39;41.05;;;22.98;;
59390;SDS011;53405;57.012;40.984;2023-04-03T00:11:07;38.38;;;22.48;;
59390;SDS011;53405;57.012;40.984;2023-04-03T00:13:35;38.35;;;20.98;;
59390;SDS011;53405;57.012;40.984;2023-04-03T00:16:03;39.85;;;19.65;;
59390;SDS011;53405;57.012;40.984;2023-04-03T00:18:31;34.75;;;19.92;;
59390;SDS011;53405;57.012;40.984;2023-04-03T00:20:58;32.58;;;18.80;;
59390;SDS011;53405;57.012;40.984;2023-04-03T00:23:26;33.63;;;17.63;;
59390;SDS011;53405;57.012;40.984;2023-04-03T00:25:53;34.20;;;19.25;;
59390;SDS011;53405;57.012;40.984;2023-04-03T00:28:21;33.28;;;18.13;;
59390;SDS011;53405;57.012;40.984;2023-04-03T00:30:49;34.80;;;18.75;;
59390;SDS011;53405;57.012;40.984;2023-04-03T00:33:17;36.08;;;20.65;;
59390;SDS011;53405;57.012;40.984;2023-04-03T00:35:48;32.67;;;17.58;;
59390;SDS011;53405;57.012;40.984;2023-04-03T00:38:17;29.63;;;17.73;;
59390;SDS011;53405;57.012;40.984;2023-04-03T00:40:45;29.35;;;17.58;;
59390;SDS011;53405;57.012;40.984;2023-04-03T00:43:15;29.90;;;16.83;;
59390;SDS011;53405;57.012;40.984;2023-04-03T00:45:46;34.15;;;19.35;;
59390;SDS011;53405;57.012;40.984;2023-04-03T00:48:17;38.08;;;20.70;;
59390;SDS011;53405;57.012;40.984;2023-04-03T00:50:48;41.38;;;21.27;;
59390;SDS011;53405;57.012;40.984;2023-04-03T00:53:27;47.60;;;24.23;;
59390;SDS011;53405;57.012;40.984;2023-04-03T00:56:00;45.40;;;23.70;;
59390;SDS011;53405;57.012;40.984;2023-04-03T01:01:30;51.28;;;23.83;;
59390;SDS011;53405;57.012;40.984;2023-04-03T01:03:59;42.72;;;20.77;;
59390;SDS011;53405;57.012;40.984;2023-04-03T01:06:28;40.58;;;21.48;;
59390;SDS011;53405;57.012;40.984;2023-04-03T01:09:05;46.08;;;22.00;;
59390;SDS011;53405;57.012;40.984;2023-04-03T01:11:32;40.65;;;21.20;;
59390;SDS011;53405;57.012;40.984;2023-04-03T01:14:01;44.15;;;22.38;;
59390;SDS011;53405;57.012;40.984;2023-04-03T01:16:29;47.55;;;24.92;;
59390;SDS011;53405;57.012;40.984;2023-04-03T01:18:59;46.67;;;25.02;;
59390;SDS011;53405;57.012;40.984;2023-04-03T01:24:12;48.58;;;25.33;;
59390;SDS011;53405;57.012;40.984;2023-04-03T01:27:02;47.58;;;26.70;;
59390;SDS011;53405;57.012;40.984;2023-04-03T01:29:32;52.70;;;27.60;;
59390;SDS011;53405;57.012;40.984;2023-04-03T01:32:02;43.95;;;25.27;;
59390;SDS011;53405;57.012;40.984;2023-04-03T01:34:30;43.72;;;25.45;;
59390;SDS011;53405;57.012;40.984;2023-04-03T01:36:58;38.33;;;23.10;;
59390;SDS011;53405;57.012;40.984;2023-04-03T01:39:26;35.42;;;22.42;;
59390;SDS011;53405;57.012;40.984;2023-04-03T01:41:53;37.60;;;22.77;;
59390;SDS011;53405;57.012;40.984;2023-04-03T01:44:34;35.25;;;22.80;;
59390;SDS011;53405;57.012;40.984;2023-04-03T01:47:01;34.75;;;22.77;;
59390;SDS011;53405;57.012;40.984;2023-04-03T01:49:29;32.45;;;21.30;;
59390;SDS011;53405;57.012;40.984;2023-04-03T01:51:57;33.00;;;21.40;;
59390;SDS011;53405;57.012;40.984;2023-04-03T01:54:24;29.05;;;18.65;;
59390;SDS011;53405;57.012;40.984;2023-04-03T01:56:52;29.63;;;18.40;;
59390;SDS011;53405;57.012;40.984;2023-04-03T01:59:20;27.15;;;17.75;;
59390;SDS011;53405;57.012;40.984;2023-04-03T02:01:48;24.33;;;17.45;;
59390;SDS011;53405;57.012;40.984;2023-04-03T02:04:15;24.98;;;16.13;;
59390;SDS011;53405;57.012;40.984;2023-04-03T02:06:42;21.48;;;16.02;;
59390;SDS011;53405;57.012;40.984;2023-04-03T02:09:10;23.50;;;15.63;;
59390;SDS011;53405;57.012;40.984;2023-04-03T02:11:38;22.50;;;14.55;;
59390;SDS011;53405;57.012;40.984;2023-04-03T02:14:05;20.00;;;13.23;;
59390;SDS011;53405;57.012;40.984;2023-04-03T02:16:53;19.35;;;13.07;;
59390;SDS011;53405;57.012;40.984;2023-04-03T02:19:21;21.55;;;14.02;;
59390;SDS011;53405;57.012;40.984;2023-04-03T02:21:49;19.42;;;13.30;;
59390;SDS011;53405;57.012;40.984;2023-04-03T02:24:16;20.25;;;13.55;;
59390;SDS011;53405;57.012;40.984;2023-04-03T02:26:43;22.10;;;13.82;;
59390;SDS011;53405;57.012;40.984;2023-04-03T02:29:10;24.50;;;14.45;;
59390;SDS011;53405;57.012;40.984;2023-04-03T02:31:37;21.00;;;13.60;;
59390;SDS011;53405;57.012;40.984;2023-04-03T02:34:05;21.55;;;13.55;;
59390;SDS011;53405;57.012;40.984;2023-04-03T02:36:34;24.05;;;14.98;;
59390;SDS011;53405;57.012;40.984;2023-04-03T02:39:05;19.48;;;13.30;;
59390;SDS011;53405;57.012;40.984;2023-04-03T02:41:34;24.27;;;14.07;;
59390;SDS011;53405;57.012;40.984;2023-04-03T02:44:09;21.33;;;13.73;;
59390;SDS011;53405;57.012;40.984;2023-04-03T02:46:37;21.52;;;13.25;;
59390;SDS011;53405;57.012;40.984;2023-04-03T02:49:04;24.63;;;13.98;;
59390;SDS011;53405;57.012;40.984;2023-04-03T02:51:32;22.60;;;13.93;;
59390;SDS011;53405;57.012;40.984;2023-04-03T02:53:59;22.40;;;13.73;;
59390;SDS011;53405;57.012;40.984;2023-04-03T02:56:30;24.80;;;13.70;;
59390;SDS011;53405;57.012;40.984;2023-04-03T02:58:58;23.90;;;13.48;;
59390;SDS011;53405;57.012;40.984;2023-04-03T03:01:26;18.65;;;12.07;;
59390;SDS011;53405;57.012;40.984;2023-04-03T03:03:55;21.08;;;12.18;;
59390;SDS011;53405;57.012;40.984;2023-04-03T03:06:22;21.52;;;12.68;;
59390;SDS011;53405;57.012;40.984;2023-04-03T03:08:50;24.25;;;12.40;;
59390;SDS011;53405;57.012;40.984;2023-04-03T03:11:17;19.65;;;12.48;;
59390;SDS011;53405;57.012;40.984;2023-04-03T03:13:44;22.15;;;12.75;;
59390;SDS011;53405;57.012;40.984;2023-04-03T03:16:11;26.83;;;13.48;;
59390;SDS011;53405;57.012;40.984;2023-04-03T03:18:39;26.92;;;12.80;;
59390;SDS011;53405;57.012;40.984;2023-04-03T03:21:06;19.48;;;12.55;;
59390;SDS011;53405;57.012;40.984;2023-04-03T03:23:34;20.67;;;11.68;;
59390;SDS011;53405;57.012;40.984;2023-04-03T03:26:06;18.67;;;11.00;;
59390;SDS011;53405;57.012;40.984;2023-04-03T03:28:35;18.88;;;10.88;;
59390;SDS011;53405;57.012;40.984;2023-04-03T03:31:05;20.90;;;10.38;;
59390;SDS011;53405;57.012;40.984;2023-04-03T03:33:35;16.30;;;9.93;;
59390;SDS011;53405;57.012;40.984;2023-04-03T03:36:03;17.13;;;9.65;;
59390;SDS011;53405;57.012;40.984;2023-04-03T03:38:30;17.42;;;9.93;;
59390;SDS011;53405;57.012;40.984;2023-04-03T03:40:59;17.00;;;10.10;;
59390;SDS011;53405;57.012;40.984;2023-04-03T03:43:28;17.58;;;10.30;;
59390;SDS011;53405;57.012;40.984;2023-04-03T03:45:55;15.50;;;9.55;;
59390;SDS011;53405;57.012;40.984;2023-04-03T03:48:25;19.63;;;10.30;;
59390;SDS011;53405;57.012;40.984;2023-04-03T03:50:53;15.85;;;9.65;;
59390;SDS011;53405;57.012;40.984;2023-04-03T03:53:24;21.75;;;10.30;;
59390;SDS011;53405;57.012;40.984;2023-04-03T03:55:55;16.77;;;9.90;;
59390;SDS011;53405;57.012;40.984;2023-04-03T04:00:51;18.73;;;10.38;;
59390;SDS011;53405;57.012;40.984;2023-04-03T04:03:19;16.95;;;10.30;;
59390;SDS011;53405;57.012;40.984;2023-04-03T04:05:48;19.38;;;11.10;;
59390;SDS011;53405;57.012;40.984;2023-04-03T04:08:16;21.92;;;11.43;;
59390;SDS011;53405;57.012;40.984;2023-04-03T04:10:44;17.88;;;10.93;;
59390;SDS011;53405;57.012;40.984;2023-04-03T04:13:14;16.80;;;10.55;;
59390;SDS011;53405;57.012;40.984;2023-04-03T04:15:43;20.10;;;10.85;;
59390;SDS011;53405;57.012;40.984;2023-04-03T04:18:12;21.73;;;12.38;;
59390;SDS011;53405;57.012;40.984;2023-04-03T04:23:09;19.52;;;9.98;;
59390;SDS011;53405;57.012;40.984;2023-04-03T04:25:37;20.10;;;9.60;;
59390;SDS011;53405;57.012;40.984;2023-04-03T04:28:05;19.27;;;10.52;;
59390;SDS011;53405;57.012;40.984;2023-04-03T04:30:33;26.35;;;11.77;;
59390;SDS011;53405;57.012;40.984;2023-04-03T04:33:01;20.80;;;10.10;;
59390;SDS011;53405;57.012;40.984;2023-04-03T04:35:31;18.30;;;9.65;;
59390;SDS011;53405;57.012;40.984;2023-04-03T04:37:59;19.90;;;9.80;;
59390;SDS011;53405;57.012;40.984;2023-04-03T04:40:26;24.30;;;12.30;;
59390;SDS011;53405;57.012;40.984;2023-04-03T04:42:54;32.90;;;17.15;;
59390;SDS011;53405;57.012;40.984;2023-04-03T04:45:22;28.10;;;11.98;;
59390;SDS011;53405;57.012;40.984;2023-04-03T04:47:50;32.45;;;12.52;;
59390;SDS011;53405;57.012;40.984;2023-04-03T04:50:19;28.17;;;11.35;;
59390;SDS011;53405;57.012;40.984;2023-04-03T04:52:48;26.70;;;12.50;;
59390;SDS011;53405;57.012;40.984;2023-04-03T04:55:15;21.75;;;11.07;;
59390;SDS011;53405;57.012;40.984;2023-04-03T04:57:42;23.58;;;11.32;;
59390;SDS011;53405;57.012;40.984;2023-04-03T05:00:09;25.95;;;12.23;;
59390;SDS011;53405;57.012;40.984;2023-04-03T05:02:37;30.27;;;11.73;;
59390;SDS011;53405;57.012;40.984;2023-04-03T05:05:05;23.52;;;11.02;;
59390;SDS011;53405;57.012;40.984;2023-04-03T05:07:33;25.80;;;10.73;;
59390;SDS011;53405;57.012;40.984;2023-04-03T05:10:02;18.65;;;10.43;;
59390;SDS011;53405;57.012;40.984;2023-04-03T05:12:31;15.77;;;9.77;;
59390;SDS011;53405;57.012;40.984;2023-04-03T05:15:02;17.52;;;10.27;;
59390;SDS011;53405;57.012;40.984;2023-04-03T05:17:30;22.15;;;10.85;;
59390;SDS011;53405;57.012;40.984;2023-04-03T05:19:59;22.38;;;10.70;;
59390;SDS011;53405;57.012;40.984;2023-04-03T05:22:29;27.58;;;11.27;;
59390;SDS011;53405;57.012;40.984;2023-04-03T05:25:08;21.73;;;10.27;;
59390;SDS011;53405;57.012;40.984;2023-04-03T05:27:37;19.10;;;10.77;;
59390;SDS011;53405;57.012;40.984;2023-04-03T05:30:05;18.80;;;10.02;;
59390;SDS011;53405;57.012;40.984;2023-04-03T05:32:34;24.75;;;10.93;;
59390;SDS011;53405;57.012;40.984;2023-04-03T05:35:11;22.90;;;10.45;;
59390;SDS011;53405;57.012;40.984;2023-04-03T05:37:41;19.15;;;10.35;;
59390;SDS011;53405;57.012;40.984;2023-04-03T05:40:08;22.10;;;10.48;;
59390;SDS011;53405;57.012;40.984;2023-04-03T05:42:40;22.02;;;10.80;;
59390;SDS011;53405;57.012;40.984;2023-04-03T05:45:08;18.95;;;9.90;;
59390;SDS011;53405;57.012;40.984;2023-04-03T05:47:36;29.10;;;11.73;;
59390;SDS011;53405;57.012;40.984;2023-04-03T05:50:05;18.55;;;10.30;;
59390;SDS011;53405;57.012;40.984;2023-04-03T05:52:33;22.70;;;10.07;;
59390;SDS011;53405;57.012;40.984;2023-04-03T05:55:07;23.02;;;10.10;;
59390;SDS011;53405;57.012;40.984;2023-04-03T05:57:35;27.15;;;10.27;;
59390;SDS011;53405;57.012;40.984;2023-04-03T06:00:04;23.80;;;10.52;;
59390;SDS011;53405;57.012;40.984;2023-04-03T06:02:39;29.20;;;10.25;;
59390;SDS011;53405;57.012;40.984;2023-04-03T06:05:14;23.23;;;10.35;;
59390;SDS011;53405;57.012;40.984;2023-04-03T06:07:41;24.88;;;10.45;;
59390;SDS011;53405;57.012;40.984;2023-04-03T06:10:11;22.88;;;9.73;;
59390;SDS011;53405;57.012;40.984;2023-04-03T06:12:39;16.45;;;9.68;;
59390;SDS011;53405;57.012;40.984;2023-04-03T06:15:06;21.75;;;10.32;;
59390;SDS011;53405;57.012;40.984;2023-04-03T06:17:36;21.63;;;10.38;;
59390;SDS011;53405;57.012;40.984;2023-04-03T06:20:04;29.25;;;10.38;;
59390;SDS011;53405;57.012;40.984;2023-04-03T06:22:33;30.70;;;10.80;;
59390;SDS011;53405;57.012;40.984;2023-04-03T06:25:01;25.25;;;10.48;;
59390;SDS011;53405;57.012;40.984;2023-04-03T06:27:29;33.00;;;11.40;;
59390;SDS011;53405;57.012;40.984;2023-04-03T06:29:57;24.55;;;10.68;;
59390;SDS011;53405;57.012;40.984;2023-04-03T06:32:24;41.85;;;12.50;;
59390;SDS011;53405;57.012;40.984;2023-04-03T06:34:51;32.78;;;10.70;;
59390;SDS011;53405;57.012;40.984;2023-04-03T06:37:21;23.48;;;10.57;;
59390;SDS011;53405;57.012;40.984;2023-04-03T06:39:49;41.15;;;21.90;;
59390;SDS011;53405;57.012;40.984;2023-04-03T06:42:16;68.68;;;40.40;;
59390;SDS011;53405;57.012;40.984;2023-04-03T06:44:52;22.80;;;10.60;;
59390;SDS011;53405;57.012;40.984;2023-04-03T06:47:19;16.90;;;10.05;;
59390;SDS011;53405;57.012;40.984;2023-04-03T06:49:47;19.67;;;10.50;;
59390;SDS011;53405;57.012;40.984;2023-04-03T06:52:14;24.80;;;11.15;;
59390;SDS011;53405;57.012;40.984;2023-04-03T06:54:41;24.60;;;10.52;;
59390;SDS011;53405;57.012;40.984;2023-04-03T06:57:08;25.33;;;11.13;;
59390;SDS011;53405;57.012;40.984;2023-04-03T06:59:36;26.20;;;12.65;;
59390;SDS011;53405;57.012;40.984;2023-04-03T07:02:03;50.85;;;12.27;;
59390;SDS011;53405;57.012;40.984;2023-04-03T07:04:31;22.70;;;9.60;;
59390;SDS011;53405;57.012;40.984;2023-04-03T07:06:58;23.70;;;10.38;;
59390;SDS011;53405;57.012;40.984;2023-04-03T07:09:25;19.67;;;10.35;;
59390;SDS011;53405;57.012;40.984;2023-04-03T07:11:52;28.02;;;11.77;;
59390;SDS011;53405;57.012;40.984;2023-04-03T07:14:20;23.25;;;11.05;;
59390;SDS011;53405;57.012;40.984;2023-04-03T07:16:47;27.20;;;11.30;;
59390;SDS011;53405;57.012;40.984;2023-04-03T07:19:15;21.90;;;11.65;;
59390;SDS011;53405;57.012;40.984;2023-04-03T07:21:43;26.25;;;10.70;;
59390;SDS011;53405;57.012;40.984;2023-04-03T07:24:11;24.48;;;13.18;;
59390;SDS011;53405;57.012;40.984;2023-04-03T07:26:38;28.80;;;13.43;;
59390;SDS011;53405;57.012;40.984;2023-04-03T07:29:06;20.90;;;11.68;;
59390;SDS011;53405;57.012;40.984;2023-04-03T07:31:33;32.70;;;12.68;;
59390;SDS011;53405;57.012;40.984;2023-04-03T07:34:00;35.15;;;12.55;;
59390;SDS011;53405;57.012;40.984;2023-04-03T07:36:28;21.63;;;11.10;;
59390;SDS011;53405;57.012;40.984;2023-04-03T07:38:56;43.05;;;13.18;;
59390;SDS011;53405;57.012;40.984;2023-04-03T07:41:24;24.33;;;11.27;;
59390;SDS011;53405;57.012;40.984;2023-04-03T07:43:51;21.20;;;11.82;;
59390;SDS011;53405;57.012;40.984;2023-04-03T07:46:19;29.90;;;12.80;;
59390;SDS011;53405;57.012;40.984;2023-04-03T07:48:47;29.85;;;10.98;;
59390;SDS011;53405;57.012;40.984;2023-04-03T07:51:14;26.25;;;10.38;;
59390;SDS011;53405;57.012;40.984;2023-04-03T07:53:41;22.42;;;10.25;;
59390;SDS011;53405;57.012;40.984;2023-04-03T07:56:09;22.10;;;10.57;;
59390;SDS011;53405;57.012;40.984;2023-04-03T07:58:36;28.15;;;10.18;;
59390;SDS011;53405;57.012;40.984;2023-04-03T08:01:03;21.67;;;10.15;;
59390;SDS011;53405;57.012;40.984;2023-04-03T08:03:31;26.23;;;11.18;;
59390;SDS011;53405;57.012;40.984;2023-04-03T08:06:01;28.90;;;11.35;;
59390;SDS011;53405;57.012;40.984;2023-04-03T08:08:31;31.35;;;11.40;;
59390;SDS011;53405;57.012;40.984;2023-04-03T08:11:00;18.67;;;10.43;;
59390;SDS011;53405;57.012;40.984;2023-04-03T08:13:29;26.50;;;10.10;;
59390;SDS011;53405;57.012;40.984;2023-04-03T08:15:57;21.08;;;10.50;;
59390;SDS011;53405;57.012;40.984;2023-04-03T08:18:25;38.42;;;11.65;;
59390;SDS011;53405;57.012;40.984;2023-04-03T08:20:53;16.08;;;9.90;;
59390;SDS011;53405;57.012;40.984;2023-04-03T08:23:20;22.67;;;9.73;;
59390;SDS011;53405;57.012;40.984;2023-04-03T08:25:47;34.42;;;11.07;;
59390;SDS011;53405;57.012;40.984;2023-04-03T08:28:15;22.10;;;10.52;;
59390;SDS011;53405;57.012;40.984;2023-04-03T08:30:42;21.00;;;9.50;;
59390;SDS011;53405;57.012;40.984;2023-04-03T08:33:09;20.23;;;9.75;;
59390;SDS011;53405;57.012;40.984;2023-04-03T08:35:40;18.48;;;8.45;;
59390;SDS011;53405;57.012;40.984;2023-04-03T08:38:09;26.13;;;8.65;;
59390;SDS011;53405;57.012;40.984;2023-04-03T08:40:37;22.08;;;9.13;;
59390;SDS011;53405;57.012;40.984;2023-04-03T08:45:49;28.35;;;9.55;;
59390;SDS011;53405;57.012;40.984;2023-04-03T08:48:23;22.45;;;9.13;;
59390;SDS011;53405;57.012;40.984;2023-04-03T08:50:58;22.98;;;9.35;;
59390;SDS011;53405;57.012;40.984;2023-04-03T08:53:33;29.90;;;10.27;;
59390;SDS011;53405;57.012;40.984;2023-04-03T08:56:06;21.60;;;7.13;;
59390;SDS011;53405;57.012;40.984;2023-04-03T08:58:47;27.92;;;9.40;;
59390;SDS011;53405;57.012;40.984;2023-04-03T09:01:39;35.50;;;9.55;;
59390;SDS011;53405;57.012;40.984;2023-04-03T09:04:11;38.83;;;9.63;;
59390;SDS011;53405;57.012;40.984;2023-04-03T09:06:44;49.53;;;11.52;;
59390;SDS011;53405;57.012;40.984;2023-04-03T09:14:37;21.67;;;8.27;;
59390;SDS011;53405;57.012;40.984;2023-04-03T09:20:07;21.53;;;8.87;;
59390;SDS011;53405;57.012;40.984;2023-04-03T09:22:45;37.00;;;8.00;;
59390;SDS011;53405;57.012;40.984;2023-04-03T09:25:18;21.33;;;7.03;;
59390;SDS011;53405;57.012;40.984;2023-04-03T09:27:49;22.40;;;8.02;;
59390;SDS011;53405;57.012;40.984;2023-04-03T09:30:17;23.25;;;7.80;;
59390;SDS011;53405;57.012;40.984;2023-04-03T09:32:48;26.17;;;9.23;;
59390;SDS011;53405;57.012;40.984;2023-04-03T09:35:34;53.70;;;9.90;;
59390;SDS011;53405;57.012;40.984;2023-04-03T09:40:38;31.17;;;8.77;;
59390;SDS011;53405;57.012;40.984;2023-04-03T09:45:51;25.70;;;8.32;;
59390;SDS011;53405;57.012;40.984;2023-04-03T09:48:23;30.83;;;8.80;;
59390;SDS011;53405;57.012;40.984;2023-04-03T09:50:54;19.00;;;7.07;;
59390;SDS011;53405;57.012;40.984;2023-04-03T09:53:42;22.60;;;6.70;;
59390;SDS011;53405;57.012;40.984;2023-04-03T09:58:44;16.05;;;7.53;;
59390;SDS011;53405;57.012;40.984;2023-04-03T10:01:56;28.35;;;7.78;;
59390;SDS011;53405;57.012;40.984;2023-04-03T10:04:24;30.42;;;7.65;;
59390;SDS011;53405;57.012;40.984;2023-04-03T10:06:53;25.85;;;7.70;;
59390;SDS011;53405;57.012;40.984;2023-04-03T10:12:03;18.50;;;6.50;;
59390;SDS011;53405;57.012;40.984;2023-04-03T10:14:37;27.92;;;7.88;;
59390;SDS011;53405;57.012;40.984;2023-04-03T10:19:57;27.20;;;6.35;;
59390;SDS011;53405;57.012;40.984;2023-04-03T10:28:02;11.23;;;5.80;;
59390;SDS011;53405;57.012;40.984;2023-04-03T10:30:48;29.08;;;6.53;;
59390;SDS011;53405;57.012;40.984;2023-04-03T10:36:21;20.25;;;7.65;;
59390;SDS011;53405;57.012;40.984;2023-04-03T10:48:10;10.60;;;5.47;;
59390;SDS011;53405;57.012;40.984;2023-04-03T10:51:00;20.30;;;6.43;;
59390;SDS011;53405;57.012;40.984;2023-04-03T10:59:28;16.70;;;6.20;;
59390;SDS011;53405;57.012;40.984;2023-04-03T11:02:00;23.70;;;6.35;;
59390;SDS011;53405;57.012;40.984;2023-04-03T11:04:37;12.55;;;5.53;;
59390;SDS011;53405;57.012;40.984;2023-04-03T11:07:26;20.70;;;6.00;;
59390;SDS011;53405;57.012;40.984;2023-04-03T11:10:13;22.33;;;6.20;;
59390;SDS011;53405;57.012;40.984;2023-04-03T11:12:46;19.13;;;6.68;;
59390;SDS011;53405;57.012;40.984;2023-04-03T11:15:18;21.05;;;5.93;;
59390;SDS011;53405;57.012;40.984;2023-04-03T11:17:54;19.33;;;6.20;;
59390;SDS011;53405;57.012;40.984;2023-04-03T11:20:26;19.42;;;5.78;;
59390;SDS011;53405;57.012;40.984;2023-04-03T11:23:01;20.17;;;6.28;;
59390;SDS011;53405;57.012;40.984;2023-04-03T11:25:34;11.68;;;5.00;;
59390;SDS011;53405;57.012;40.984;2023-04-03T11:28:06;18.35;;;11.27;;
59390;SDS011;53405;57.012;40.984;2023-04-03T11:30:57;19.33;;;5.47;;
59390;SDS011;53405;57.012;40.984;2023-04-03T11:38:51;30.35;;;8.32;;
59390;SDS011;53405;57.012;40.984;2023-04-03T11:41:29;10.90;;;5.20;;
59390;SDS011;53405;57.012;40.984;2023-04-03T11:44:03;12.82;;;5.15;;
59390;SDS011;53405;57.012;40.984;2023-04-03T11:46:54;31.60;;;6.82;;
59390;SDS011;53405;57.012;40.984;2023-04-03T12:05:51;20.55;;;5.90;;
59390;SDS011;53405;57.012;40.984;2023-04-03T12:08:25;26.75;;;5.80;;
59390;SDS011;53405;57.012;40.984;2023-04-03T12:11:15;18.42;;;5.95;;
59390;SDS011;53405;57.012;40.984;2023-04-03T12:16:21;26.15;;;6.32;;
59390;SDS011;53405;57.012;40.984;2023-04-03T12:19:47;18.73;;;5.53;;
59390;SDS011;53405;57.012;40.984;2023-04-03T12:22:08;16.92;;;4.82;;
59390;SDS011;53405;57.012;40.984;2023-04-03T12:24:39;11.90;;;4.45;;
59390;SDS011;53405;57.012;40.984;2023-04-03T12:30:25;17.00;;;5.38;;
59390;SDS011;53405;57.012;40.984;2023-04-03T12:46:58;18.70;;;5.15;;
59390;SDS011;53405;57.012;40.984;2023-04-03T12:51:55;17.45;;;4.90;;
59390;SDS011;53405;57.012;40.984;2023-04-03T12:54:26;11.88;;;4.43;;
59390;SDS011;53405;57.012;40.984;2023-04-03T12:59:36;11.65;;;4.53;;
59390;SDS011;53405;57.012;40.984;2023-04-03T13:02:10;10.48;;;4.80;;
59390;SDS011;53405;57.012;40.984;2023-04-03T13:04:54;13.63;;;4.47;;
59390;SDS011;53405;57.012;40.984;2023-04-03T13:07:29;10.32;;;4.28;;
59390;SDS011;53405;57.012;40.984;2023-04-03T13:12:35;24.35;;;5.13;;
59390;SDS011;53405;57.012;40.984;2023-04-03T13:15:47;16.10;;;4.75;;
59390;SDS011;53405;57.012;40.984;2023-04-03T13:18:22;15.73;;;5.28;;
59390;SDS011;53405;57.012;40.984;2023-04-03T13:20:51;14.05;;;4.90;;
59390;SDS011;53405;57.012;40.984;2023-04-03T13:23:19;12.75;;;4.43;;
59390;SDS011;53405;57.012;40.984;2023-04-03T13:25:47;10.50;;;4.32;;
59390;SDS011;53405;57.012;40.984;2023-04-03T13:28:20;15.93;;;4.90;;
59390;SDS011;53405;57.012;40.984;2023-04-03T13:31:01;15.63;;;4.93;;
59390;SDS011;53405;57.012;40.984;2023-04-03T13:33:33;11.15;;;4.95;;
59390;SDS011;53405;57.012;40.984;2023-04-03T13:36:17;14.35;;;4.88;;
59390;SDS011;53405;57.012;40.984;2023-04-03T13:38:58;18.83;;;8.43;;
59390;SDS011;53405;57.012;40.984;2023-04-03T13:41:49;24.05;;;7.13;;
59390;SDS011;53405;57.012;40.984;2023-04-03T13:51:45;22.23;;;5.63;;
59390;SDS011;53405;57.012;40.984;2023-04-03T13:54:21;21.25;;;5.22;;
59390;SDS011;53405;57.012;40.984;2023-04-03T13:56:54;10.85;;;4.85;;
59390;SDS011;53405;57.012;40.984;2023-04-03T13:59:28;11.63;;;4.38;;
59390;SDS011;53405;57.012;40.984;2023-04-03T14:04:53;18.85;;;6.47;;
59390;SDS011;53405;57.012;40.984;2023-04-03T14:07:25;13.13;;;5.25;;
59390;SDS011;53405;57.012;40.984;2023-04-03T14:09:52;12.13;;;6.20;;
59390;SDS011;53405;57.012;40.984;2023-04-03T14:12:24;17.02;;;5.80;;
59390;SDS011;53405;57.012;40.984;2023-04-03T14:15:00;12.90;;;5.78;;
59390;SDS011;53405;57.012;40.984;2023-04-03T14:17:29;16.58;;;5.38;;
59390;SDS011;53405;57.012;40.984;2023-04-03T14:29:09;18.00;;;6.22;;
59390;SDS011;53405;57.012;40.984;2023-04-03T14:31:37;25.85;;;10.25;;
59390;SDS011;53405;57.012;40.984;2023-04-03T14:34:05;14.30;;;6.07;;
59390;SDS011;53405;57.012;40.984;2023-04-03T14:36:32;14.50;;;5.60;;
59390;SDS011;53405;57.012;40.984;2023-04-03T14:39:00;18.55;;;5.95;;
59390;SDS011;53405;57.012;40.984;2023-04-03T14:41:27;16.13;;;6.15;;
59390;SDS011;53405;57.012;40.984;2023-04-03T14:43:55;20.38;;;7.00;;
59390;SDS011;53405;57.012;40.984;2023-04-03T14:46:27;18.85;;;6.40;;
59390;SDS011;53405;57.012;40.984;2023-04-03T14:49:00;14.00;;;5.82;;
59390;SDS011;53405;57.012;40.984;2023-04-03T14:51:28;17.27;;;6.20;;
59390;SDS011;53405;57.012;40.984;2023-04-03T14:53:55;21.08;;;6.25;;
59390;SDS011;53405;57.012;40.984;2023-04-03T14:56:23;20.05;;;7.10;;
59390;SDS011;53405;57.012;40.984;2023-04-03T14:58:55;22.38;;;6.30;;
59390;SDS011;53405;57.012;40.984;2023-04-03T15:01:24;19.40;;;5.82;;
59390;SDS011;53405;57.012;40.984;2023-04-03T15:03:52;24.05;;;6.53;;
59390;SDS011;53405;57.012;40.984;2023-04-03T15:06:20;17.23;;;6.00;;
59390;SDS011;53405;57.012;40.984;2023-04-03T15:08:48;12.80;;;5.75;;
59390;SDS011;53405;57.012;40.984;2023-04-03T15:11:16;20.45;;;6.40;;
59390;SDS011;53405;57.012;40.984;2023-04-03T15:13:43;17.17;;;6.43;;
59390;SDS011;53405;57.012;40.984;2023-04-03T15:16:18;21.58;;;6.15;;
59390;SDS011;53405;57.012;40.984;2023-04-03T15:18:46;11.82;;;6.22;;
59390;SDS011;53405;57.012;40.984;2023-04-03T15:21:14;19.05;;;6.07;;
59390;SDS011;53405;57.012;40.984;2023-04-03T15:23:41;17.08;;;6.78;;
59390;SDS011;53405;57.012;40.984;2023-04-03T15:26:09;14.60;;;6.65;;
59390;SDS011;53405;57.012;40.984;2023-04-03T15:28:40;15.35;;;6.90;;
59390;SDS011;53405;57.012;40.984;2023-04-03T15:31:09;19.08;;;6.55;;
59390;SDS011;53405;57.012;40.984;2023-04-03T15:33:36;16.13;;;5.85;;
59390;SDS011;53405;57.012;40.984;2023-04-03T15:36:04;18.25;;;6.30;;
59390;SDS011;53405;57.012;40.984;2023-04-03T15:38:32;20.60;;;5.65;;
59390;SDS011;53405;57.012;40.984;2023-04-03T15:41:00;13.93;;;6.25;;
59390;SDS011;53405;57.012;40.984;2023-04-03T15:43:28;15.18;;;5.47;;
59390;SDS011;53405;57.012;40.984;2023-04-03T15:45:58;12.70;;;5.68;;
59390;SDS011;53405;57.012;40.984;2023-04-03T15:48:26;15.80;;;5.70;;
59390;SDS011;53405;57.012;40.984;2023-04-03T15:50:54;22.95;;;6.32;;
59390;SDS011;53405;57.012;40.984;2023-04-03T15:53:23;13.77;;;5.93;;
59390;SDS011;53405;57.012;40.984;2023-04-03T15:55:50;14.85;;;6.25;;
59390;SDS011;53405;57.012;40.984;2023-04-03T15:58:17;19.23;;;6.07;;
59390;SDS011;53405;57.012;40.984;2023-04-03T16:00:44;17.48;;;7.93;;
59390;SDS011;53405;57.012;40.984;2023-04-03T16:03:15;12.43;;;5.88;;
59390;SDS011;53405;57.012;40.984;2023-04-03T16:05:43;16.05;;;6.15;;
59390;SDS011;53405;57.012;40.984;2023-04-03T16:08:12;12.95;;;6.18;;
59390;SDS011;53405;57.012;40.984;2023-04-03T16:10:40;16.23;;;5.97;;
59390;SDS011;53405;57.012;40.984;2023-04-03T16:13:08;13.50;;;5.75;;
59390;SDS011;53405;57.012;40.984;2023-04-03T16:15:36;13.48;;;5.57;;
59390;SDS011;53405;57.012;40.984;2023-04-03T16:18:04;14.27;;;5.32;;
59390;SDS011;53405;57.012;40.984;2023-04-03T16:20:32;16.70;;;6.10;;
59390;SDS011;53405;57.012;40.984;2023-04-03T16:23:01;15.30;;;5.90;;
59390;SDS011;53405;57.012;40.984;2023-04-03T16:25:28;25.83;;;11.75;;
59390;SDS011;53405;57.012;40.984;2023-04-03T16:27:57;68.53;;;30.40;;
59390;SDS011;53405;57.012;40.984;2023-04-03T16:30:24;64.65;;;32.63;;
59390;SDS011;53405;57.012;40.984;2023-04-03T16:32:52;53.42;;;28.42;;
59390;SDS011;53405;57.012;40.984;2023-04-03T16:35:20;28.98;;;17.33;;
59390;SDS011;53405;57.012;40.984;2023-04-03T16:37:48;20.92;;;13.88;;
59390;SDS011;53405;57.012;40.984;2023-04-03T16:40:15;22.52;;;11.13;;